Jordan Road-Canyon Creek, WA

2:28 PM PST on January 19, 2017 (GMT -0800)
Rainbow Springs | | Change Station

Elev 250 ft 48.11 °N, 122.01 °W | Updated 14 minutes ago

Rain
Rain
47.1 °F
Feels Like 46 °F
N
3.2
Wind Variable Wind from ESE

Today
High -- | Low -- °F
--% Chance of Precip.
Yesterday
High -- | Low -- °F
Precip. -- in
Pressure 29.49 in
Visibility 5.0 miles
Clouds Mostly Cloudy 2300 ft
Overcast 2800 ft
Windchill 46 °F
Dew Point 45 °F
Humidity 91%
Rainfall 0.05 in
Snow Depth Not available.
7:49 AM 4:48 PM
Waning Gibbous, 50% visible
METAR KPAE 192153Z 16018KT 5SM -RA BKN023 OVC028 08/06 A2948 RMK AO2 PK WND 17028/2100 RAE2056B14E29B50 SLP986 P0000 T00830056
Pressure 29.49 in
Visibility 5.0 miles
Clouds Mostly Cloudy 2300 ft
Overcast 2800 ft
Windchill 46 °F
Dew Point 45 °F
Humidity 91%
Rainfall 0.05 in
Snow Depth Not available.
7:49 AM 4:48 PM
Waning Gibbous, 50% visible
METAR KPAE 192153Z 16018KT 5SM -RA BKN023 OVC028 08/06 A2948 RMK AO2 PK WND 17028/2100 RAE2056B14E29B50 SLP986 P0000 T00830056

Get Your Daily Forecast Email!

Thanks for signing up!

Be on the lookout for a verification email in your inbox.

You'll start receiving the daily forecast at 8 AM.

×

10-Day Weather Forecast

Almanac

Astronomy

Jan. 19, 2017 Rise Set
Actual Time
Civil Twilight
Nautical Twilight
Astronomical Twilight
Moon
Length of Visible Light
Length of Day
Tomorrow will be .
, % of the Moon is Illuminated

Today's Extremes

State Highs State Lows

Community

WunderPhotos

Upload Photos

1,962,540 photos uploaded!

WunderBlog® & News

Nearby

Air Quality

  Air Quality AQ Index Pollutant
Not available.

Snow Depth

Station Depth Elevation

Earthquake Activity

City Distance Mag. Time & Date
Minimum magnitude displayed is 2.5.

Coastal Water Temperatures

Place Temperature

Stations

Nearby Weather Stations

Station Location Temp. Windchill Dew Point Humidity Wind Precip. Elev Updated Type
                   

Watches & Warnings

There are currently no watches in effect.